Time;durP1;ratioP1;P1;durP2;ratioP2;P2;SDS_P1;SDS_P2;PMS_P1;PMS_P2;Temp;Humidity;BMP_temperature;BMP_pressure;BME280_temperature;BME280_humidity;BME280_pressure;Samples;Min_cycle;Max_cycle;Signal;HPM_P1;HPM_P2
2021/10/11 00:01:04;;;;;;;20.30;11.43;;;1.60;99.90;;;;;;4952883;28;20058;-79
2021/10/11 00:03:32;;;;;;;20.50;15.82;;;1.60;99.90;;;;;;4954663;28;20059;-79
2021/10/11 00:05:59;;;;;;;18.33;12.45;;;1.50;99.90;;;;;;4972125;28;20499;-80
2021/10/11 00:08:27;;;;;;;15.32;12.18;;;1.40;99.90;;;;;;4972084;28;20039;-78
2021/10/11 00:10:55;;;;;;;15.60;11.57;;;1.40;99.90;;;;;;4972155;28;20043;-79
2021/10/11 00:13:22;;;;;;;17.38;13.02;;;1.40;99.90;;;;;;4969362;28;20050;-79
2021/10/11 00:15:50;;;;;;;24.67;15.23;;;1.40;99.90;;;;;;4933982;29;20415;-79
2021/10/11 00:18:18;;;;;;;19.80;11.30;;;1.40;99.90;;;;;;4933329;29;20056;-79
2021/10/11 00:20:46;;;;;;;19.02;11.88;;;1.50;99.90;;;;;;4932923;29;20502;-79
2021/10/11 00:23:15;;;;;;;20.98;14.95;;;1.50;99.90;;;;;;4933609;29;20047;-79
2021/10/11 00:25:43;;;;;;;22.00;14.32;;;1.40;99.90;;;;;;4916486;29;20048;-79
2021/10/11 00:28:11;;;;;;;16.98;12.25;;;1.30;99.90;;;;;;4946685;29;20412;-79
2021/10/11 00:30:39;;;;;;;96.13;16.30;;;1.20;99.90;;;;;;4951499;28;20055;-79
2021/10/11 00:33:08;;;;;;;33.30;13.30;;;1.00;99.90;;;;;;4952345;28;20051;-79
2021/10/11 00:35:37;;;;;;;43.40;13.02;;;0.90;99.90;;;;;;4952840;29;20044;-79
2021/10/11 00:38:05;;;;;;;28.80;11.70;;;0.80;99.90;;;;;;4951767;28;20058;-79
2021/10/11 00:40:33;;;;;;;19.65;12.77;;;0.80;99.90;;;;;;4952048;28;20477;-80
2021/10/11 00:43:01;;;;;;;19.92;11.93;;;0.90;99.90;;;;;;4952123;29;20055;-79
2021/10/11 00:45:29;;;;;;;19.83;10.52;;;0.80;99.90;;;;;;4952338;28;20050;-79
2021/10/11 00:47:57;;;;;;;18.83;12.02;;;0.90;99.90;;;;;;4952507;29;20055;-79
2021/10/11 00:50:25;;;;;;;17.65;13.80;;;1.00;99.90;;;;;;4949240;28;20575;-79
2021/10/11 00:52:53;;;;;;;20.50;12.32;;;1.10;99.90;;;;;;4951925;28;20044;-79
2021/10/11 00:55:22;;;;;;;18.23;10.57;;;1.10;99.90;;;;;;4952638;29;20448;-79
2021/10/11 00:57:49;;;;;;;21.73;11.43;;;1.20;99.90;;;;;;4954667;28;20547;-78
2021/10/11 01:00:18;;;;;;;15.77;13.95;;;1.20;99.90;;;;;;4959042;29;20047;-78
2021/10/11 01:02:45;;;;;;;15.23;11.50;;;1.10;99.90;;;;;;4958617;28;20051;-79
2021/10/11 01:05:13;;;;;;;19.58;12.25;;;1.10;99.90;;;;;;4973048;28;20481;-78
2021/10/11 01:07:41;;;;;;;17.15;10.20;;;1.00;99.90;;;;;;4978225;28;20392;-79
2021/10/11 01:10:09;;;;;;;16.55;9.90;;;0.90;99.90;;;;;;4977527;28;20503;-79
2021/10/11 01:12:37;;;;;;;21.00;11.25;;;1.00;99.90;;;;;;4977077;28;20396;-78
2021/10/11 01:15:05;;;;;;;27.33;12.52;;;0.90;99.90;;;;;;4978411;28;20066;-78
2021/10/11 01:17:33;;;;;;;19.63;12.70;;;1.00;99.90;;;;;;4977439;28;20572;-79
2021/10/11 01:20:01;;;;;;;14.50;11.32;;;1.00;99.90;;;;;;4977515;28;20050;-78
2021/10/11 01:22:41;;;;;;;14.98;11.50;;;1.10;99.90;;;;;;4977207;28;20487;-78
2021/10/11 01:25:14;;;;;;;11.20;9.80;;;1.00;99.90;;;;;;4968747;28;20040;-78
2021/10/11 01:27:43;;;;;;;25.10;10.38;;;1.00;99.90;;;;;;4957886;29;20055;-78
2021/10/11 01:30:12;;;;;;;14.27;10.32;;;0.80;99.90;;;;;;4957775;28;20064;-78
2021/10/11 01:32:42;;;;;;;20.90;12.32;;;0.70;99.90;;;;;;4957979;28;20062;-78
2021/10/11 01:35:10;;;;;;;18.05;11.35;;;0.60;99.90;;;;;;4958727;29;20047;-78
2021/10/11 01:37:38;;;;;;;18.48;12.10;;;0.60;99.90;;;;;;4957800;28;20047;-78
2021/10/11 01:40:07;;;;;;;13.70;10.38;;;0.70;99.90;;;;;;4985946;23;20055;-78
2021/10/11 01:42:35;;;;;;;17.55;10.45;;;0.70;99.90;;;;;;4959054;28;20051;-78
2021/10/11 01:45:05;;;;;;;16.17;11.40;;;0.70;99.90;;;;;;4977059;28;20050;-78
2021/10/11 01:47:34;;;;;;;17.50;11.85;;;0.70;99.90;;;;;;4964845;28;20528;-78
2021/10/11 01:50:03;;;;;;;22.70;11.75;;;0.70;99.90;;;;;;4976840;28;20074;-79
2021/10/11 01:52:31;;;;;;;18.38;13.07;;;0.80;99.90;;;;;;4960156;28;20051;-79
2021/10/11 01:54:58;;;;;;;18.50;10.18;;;0.80;99.90;;;;;;4960611;28;20055;-78
2021/10/11 01:57:26;;;;;;;15.43;11.32;;;0.70;99.90;;;;;;4964947;28;20047;-78
2021/10/11 01:59:54;;;;;;;23.65;9.95;;;0.70;99.90;;;;;;4941324;29;20047;-78
2021/10/11 02:02:21;;;;;;;17.83;10.85;;;0.80;99.90;;;;;;4957913;28;20813;-78
2021/10/11 02:04:49;;;;;;;17.67;10.70;;;0.80;99.90;;;;;;4981220;28;20061;-78
2021/10/11 02:07:17;;;;;;;19.88;12.18;;;0.90;99.90;;;;;;4979563;28;20053;-79
2021/10/11 02:09:45;;;;;;;20.60;12.18;;;0.90;99.90;;;;;;4993282;28;20050;-78
2021/10/11 02:12:12;;;;;;;21.27;12.00;;;1.10;99.90;;;;;;4993471;28;20058;-78
2021/10/11 02:14:40;;;;;;;22.88;13.68;;;1.00;99.90;;;;;;4970986;28;20043;-78
2021/10/11 02:17:08;;;;;;;18.23;10.88;;;0.90;99.90;;;;;;4954859;29;20043;-78
2021/10/11 02:19:35;;;;;;;12.13;9.57;;;0.80;99.90;;;;;;4955162;29;20063;-78
2021/10/11 02:22:03;;;;;;;21.08;10.02;;;0.80;99.90;;;;;;4953920;28;20058;-78
2021/10/11 02:24:31;;;;;;;17.45;9.32;;;0.80;99.90;;;;;;4937351;29;20047;-78
2021/10/11 02:26:59;;;;;;;16.52;10.43;;;0.80;99.90;;;;;;4962123;28;20050;-78
2021/10/11 02:29:28;;;;;;;16.25;12.82;;;0.80;99.90;;;;;;4992910;28;20057;-78
2021/10/11 02:31:56;;;;;;;14.80;9.48;;;0.80;99.90;;;;;;4993747;28;20069;-78
2021/10/11 02:34:24;;;;;;;14.20;11.23;;;0.80;99.90;;;;;;4975684;28;20039;-78
2021/10/11 02:36:52;;;;;;;12.30;8.63;;;0.70;99.90;;;;;;4992467;28;20046;-78
2021/10/11 02:39:20;;;;;;;13.25;10.00;;;0.70;99.90;;;;;;4993534;28;20061;-78
2021/10/11 02:41:48;;;;;;;16.40;10.10;;;0.60;99.90;;;;;;4991875;28;20050;-78
2021/10/11 02:44:15;;;;;;;88.38;14.23;;;0.50;99.90;;;;;;4993622;28;20058;-78
2021/10/11 02:46:43;;;;;;;30.63;10.57;;;0.30;99.90;;;;;;4978050;28;20054;-78
2021/10/11 02:49:10;;;;;;;17.77;8.80;;;0.20;99.90;;;;;;4953164;28;20404;-78
2021/10/11 02:51:38;;;;;;;14.38;11.93;;;0.20;99.90;;;;;;4954259;29;20062;-78
2021/10/11 02:54:07;;;;;;;14.63;9.95;;;0.20;99.90;;;;;;4954127;29;20059;-78
2021/10/11 02:56:35;;;;;;;18.70;11.77;;;0.30;99.90;;;;;;4953882;29;20044;-78
2021/10/11 02:59:03;;;;;;;16.65;12.10;;;0.40;99.90;;;;;;4936945;29;20401;-78
2021/10/11 03:01:30;;;;;;;11.32;7.25;;;0.30;99.90;;;;;;4953020;28;20051;-78
2021/10/11 03:03:58;;;;;;;13.10;10.25;;;0.30;99.90;;;;;;4963805;28;20492;-78
2021/10/11 03:06:26;;;;;;;13.60;8.82;;;0.20;99.90;;;;;;4992037;28;20050;-78
2021/10/11 03:08:56;;;;;;;15.77;9.77;;;0.30;99.90;;;;;;4974865;28;20042;-78
2021/10/11 03:11:23;;;;;;;16.30;10.23;;;0.30;99.90;;;;;;4975163;28;20065;-78
2021/10/11 03:13:51;;;;;;;21.73;11.88;;;0.40;99.90;;;;;;4973416;28;20538;-78
2021/10/11 03:16:19;;;;;;;16.08;11.73;;;0.50;99.90;;;;;;4992949;28;20042;-78
2021/10/11 03:18:48;;;;;;;11.55;8.20;;;0.60;99.90;;;;;;4992287;28;20050;-78
2021/10/11 03:21:21;;;;;;;14.10;10.20;;;0.50;99.90;;;;;;4992054;28;20043;-78
2021/10/11 03:23:49;;;;;;;20.38;10.60;;;0.40;99.90;;;;;;4992501;28;20392;-77
2021/10/11 03:26:18;;;;;;;15.65;11.68;;;0.40;99.90;;;;;;4956863;28;20050;-78
2021/10/11 03:28:47;;;;;;;17.63;10.85;;;0.40;99.90;;;;;;4989647;28;20400;-78
2021/10/11 03:31:15;;;;;;;16.60;10.80;;;0.50;99.90;;;;;;4991957;28;20057;-77
2021/10/11 03:33:43;;;;;;;15.90;10.68;;;0.50;99.90;;;;;;4981423;28;20416;-78
2021/10/11 03:36:10;;;;;;;22.73;11.35;;;0.50;99.90;;;;;;4973295;28;20488;-78
2021/10/11 03:38:38;;;;;;;16.65;10.18;;;0.40;99.90;;;;;;4972292;28;20047;-78
2021/10/11 03:41:06;;;;;;;20.13;11.05;;;0.40;99.90;;;;;;4972565;28;20803;-78
2021/10/11 03:43:33;;;;;;;16.17;12.43;;;0.40;99.90;;;;;;4971976;28;20053;-78
2021/10/11 03:46:01;;;;;;;16.55;9.65;;;0.40;99.90;;;;;;4972428;28;20039;-77
2021/10/11 03:48:29;;;;;;;19.17;11.73;;;0.40;99.90;;;;;;4972414;28;20045;-78
2021/10/11 03:50:56;;;;;;;19.88;10.63;;;0.50;99.90;;;;;;4972794;28;20408;-78
2021/10/11 03:53:24;;;;;;;21.63;10.45;;;0.70;99.90;;;;;;4972064;28;20046;-78
2021/10/11 03:55:52;;;;;;;14.80;10.50;;;0.80;99.90;;;;;;4955429;28;20051;-77
2021/10/11 03:58:19;;;;;;;13.05;10.63;;;0.90;99.90;;;;;;4971480;28;20381;-78
2021/10/11 04:00:47;;;;;;;15.27;9.23;;;1.10;99.90;;;;;;4971734;28;20055;-78
2021/10/11 04:03:15;;;;;;;17.10;12.60;;;1.20;99.90;;;;;;4972695;28;20050;-78
2021/10/11 04:05:43;;;;;;;16.50;10.23;;;1.20;99.90;;;;;;4972069;28;20055;-78
2021/10/11 04:08:13;;;;;;;17.58;9.98;;;1.10;99.90;;;;;;4972358;28;20043;-78
2021/10/11 04:13:20;;;;;;;13.93;9.70;;;1.20;99.90;;;;;;4971234;28;20409;-78
2021/10/11 04:15:48;;;;;;;12.23;8.77;;;1.20;99.90;;;;;;4952849;29;20051;-81
2021/10/11 04:18:16;;;;;;;11.18;9.80;;;1.00;99.90;;;;;;4952353;29;20054;-78
2021/10/11 04:20:45;;;;;;;12.18;7.32;;;0.80;99.90;;;;;;4952193;28;20051;-78
2021/10/11 04:23:13;;;;;;;13.20;9.73;;;0.70;99.90;;;;;;4952553;29;20477;-78
2021/10/11 04:25:41;;;;;;;12.48;8.45;;;0.70;99.90;;;;;;4952221;29;20047;-78
2021/10/11 04:28:09;;;;;;;11.52;10.20;;;0.70;99.90;;;;;;4978771;28;20065;-78
2021/10/11 04:30:38;;;;;;;11.10;8.13;;;0.70;99.90;;;;;;4990256;28;20050;-78
2021/10/11 04:33:05;;;;;;;11.15;9.80;;;0.60;99.90;;;;;;4980828;28;20488;-78
2021/10/11 04:35:33;;;;;;;17.48;9.40;;;0.60;99.90;;;;;;4971864;28;20054;-77
2021/10/11 04:38:01;;;;;;;52.10;12.75;;;0.40;99.90;;;;;;4971089;28;20042;-78
2021/10/11 04:40:29;;;;;;;16.73;9.07;;;0.20;99.90;;;;;;4971103;28;20055;-77
2021/10/11 04:42:57;;;;;;;10.45;8.68;;;0.10;99.90;;;;;;4971321;28;20058;-77
2021/10/11 04:45:29;;;;;;;14.93;9.25;;;0.10;99.90;;;;;;4971269;28;20415;-78
2021/10/11 04:48:03;;;;;;;7.88;7.05;;;0.00;99.90;;;;;;4961230;28;20062;-77
2021/10/11 04:50:33;;;;;;;14.13;9.98;;;0.20;99.90;;;;;;4952000;29;20047;-77
2021/10/11 04:53:01;;;;;;;15.27;7.97;;;0.30;99.90;;;;;;4951861;28;20406;-77
2021/10/11 04:55:29;;;;;;;13.57;8.98;;;0.30;99.90;;;;;;4952793;29;20393;-77
2021/10/11 04:57:58;;;;;;;13.30;9.40;;;0.40;99.90;;;;;;4951691;29;20459;-76
2021/10/11 05:00:26;;;;;;;13.35;8.77;;;0.40;99.90;;;;;;4952584;29;20047;-78
2021/10/11 05:02:54;;;;;;;7.90;6.05;;;0.40;99.90;;;;;;4952033;28;20055;-78
2021/10/11 05:05:22;;;;;;;13.15;8.30;;;0.40;99.90;;;;;;4964040;28;20404;-78
2021/10/11 05:07:50;;;;;;;17.05;8.57;;;0.40;99.90;;;;;;4954945;28;20058;-78
2021/10/11 05:10:17;;;;;;;16.40;7.10;;;0.30;99.90;;;;;;4971666;28;20054;-78
2021/10/11 05:12:45;;;;;;;12.60;8.80;;;0.30;99.90;;;;;;4954313;28;20065;-78
2021/10/11 05:15:13;;;;;;;16.55;8.25;;;0.20;99.90;;;;;;4971939;28;20394;-78
2021/10/11 05:17:40;;;;;;;10.20;9.10;;;0.20;99.90;;;;;;4971962;28;20404;-78
2021/10/11 05:20:09;;;;;;;12.05;9.18;;;0.10;99.90;;;;;;4972133;28;20069;-78
2021/10/11 05:22:37;;;;;;;20.52;9.38;;;0.20;99.90;;;;;;4971748;28;20424;-78
2021/10/11 05:25:07;;;;;;;9.35;7.95;;;0.20;99.90;;;;;;4963698;28;20035;-78
2021/10/11 05:27:35;;;;;;;18.23;10.80;;;0.20;99.90;;;;;;4970053;28;20050;-79
2021/10/11 05:30:04;;;;;;;15.18;8.27;;;0.20;99.90;;;;;;4990944;28;20065;-78
2021/10/11 05:32:35;;;;;;;13.13;9.18;;;0.30;99.90;;;;;;4989742;28;20581;-79
2021/10/11 05:35:03;;;;;;;11.90;8.50;;;0.30;99.90;;;;;;4972280;28;20042;-79
2021/10/11 05:37:31;;;;;;;10.45;8.88;;;0.30;99.90;;;;;;4971347;28;20051;-79
2021/10/11 05:39:59;;;;;;;21.25;14.30;;;0.30;99.90;;;;;;4971961;28;20050;-80
2021/10/11 05:42:26;;;;;;;13.55;10.43;;;0.30;99.90;;;;;;4977578;28;20043;-79
2021/10/11 05:44:54;;;;;;;11.57;7.78;;;0.40;99.90;;;;;;4979366;28;20050;-79
2021/10/11 05:47:22;;;;;;;9.68;7.05;;;0.20;99.90;;;;;;4976720;28;20519;-79
2021/10/11 05:49:50;;;;;;;9.40;7.47;;;0.10;99.90;;;;;;4956041;28;20382;-78
2021/10/11 05:52:17;;;;;;;83.38;11.70;;;0.00;99.90;;;;;;4956046;29;20397;-77
2021/10/11 05:54:48;;;;;;;22.63;7.78;;;-0.10;99.90;;;;;;4955534;29;20043;-78
2021/10/11 05:57:16;;;;;;;11.43;7.47;;;-0.20;99.90;;;;;;4955554;29;20051;-79
2021/10/11 05:59:44;;;;;;;8.07;7.20;;;-0.10;99.90;;;;;;4956299;29;20043;-78
2021/10/11 06:02:11;;;;;;;8.45;6.53;;;-0.20;99.90;;;;;;4962885;28;20468;-78
2021/10/11 06:04:39;;;;;;;10.35;6.97;;;-0.10;99.90;;;;;;4962142;28;20047;-78
2021/10/11 06:07:07;;;;;;;7.95;7.15;;;0.00;99.90;;;;;;4962998;28;20074;-78
2021/10/11 06:09:34;;;;;;;13.10;8.95;;;0.10;99.90;;;;;;4952654;28;20051;-78
2021/10/11 06:12:03;;;;;;;14.70;11.05;;;0.20;99.90;;;;;;4955605;29;20059;-78
2021/10/11 06:14:53;;;;;;;11.73;9.80;;;0.30;99.90;;;;;;4948368;28;20047;-77
2021/10/11 06:17:21;;;;;;;12.50;11.20;;;0.30;99.90;;;;;;4955465;29;20047;-77
2021/10/11 06:19:49;;;;;;;18.67;8.85;;;0.40;99.90;;;;;;4955655;29;20481;-77
2021/10/11 06:22:16;;;;;;;11.27;10.00;;;0.30;99.90;;;;;;4955121;28;20054;-77
2021/10/11 06:24:44;;;;;;;14.73;7.57;;;0.30;99.90;;;;;;4955154;29;20055;-77
2021/10/11 06:27:12;;;;;;;8.73;7.63;;;0.40;99.90;;;;;;4966569;28;20051;-78
2021/10/11 06:29:40;;;;;;;10.57;9.55;;;0.30;99.90;;;;;;4964920;28;20043;-77
2021/10/11 06:32:08;;;;;;;16.83;9.93;;;0.30;99.90;;;;;;4961492;28;20063;-78
2021/10/11 06:34:36;;;;;;;18.02;7.63;;;0.30;99.90;;;;;;4962768;28;20040;-78
2021/10/11 06:37:03;;;;;;;11.40;8.90;;;0.20;99.90;;;;;;4968299;28;20046;-78
2021/10/11 06:39:31;;;;;;;8.20;7.45;;;0.10;99.90;;;;;;4974757;28;20058;-78
2021/10/11 06:41:59;;;;;;;9.55;7.07;;;0.00;99.90;;;;;;4973808;28;20042;-78
2021/10/11 06:44:28;;;;;;;11.55;8.25;;;0.00;99.90;;;;;;4973933;28;20055;-77
2021/10/11 06:46:56;;;;;;;9.15;5.95;;;0.00;99.90;;;;;;4968682;28;20051;-78
2021/10/11 06:49:24;;;;;;;12.15;7.32;;;0.10;99.90;;;;;;4935087;29;20056;-78
2021/10/11 06:51:51;;;;;;;9.40;8.25;;;0.20;99.90;;;;;;4917952;29;20055;-77
2021/10/11 06:54:19;;;;;;;9.10;7.63;;;0.50;99.90;;;;;;4935102;29;20048;-78
2021/10/11 06:56:47;;;;;;;12.02;6.78;;;0.70;99.90;;;;;;4934223;29;21018;-77
2021/10/11 06:59:14;;;;;;;12.88;9.20;;;0.90;99.90;;;;;;4935193;29;20056;-78
2021/10/11 07:01:43;;;;;;;8.32;6.28;;;1.00;99.90;;;;;;4939334;28;20051;-78
2021/10/11 07:04:31;;;;;;;9.77;8.05;;;1.10;99.90;;;;;;4939668;28;20614;-77
2021/10/11 07:06:59;;;;;;;12.48;6.70;;;1.30;99.90;;;;;;4937254;29;20043;-78
2021/10/11 07:09:26;;;;;;;13.75;8.48;;;1.40;99.90;;;;;;4953974;28;20055;-78
2021/10/11 07:11:54;;;;;;;10.05;7.30;;;1.60;99.90;;;;;;4936088;29;20058;-77
2021/10/11 07:14:22;;;;;;;12.02;7.93;;;1.70;99.90;;;;;;4953865;29;20052;-78
2021/10/11 07:16:50;;;;;;;13.35;9.13;;;1.80;99.90;;;;;;4953771;29;20116;-78
2021/10/11 07:19:18;;;;;;;14.45;8.77;;;2.00;99.90;;;;;;4937257;29;20059;-78
2021/10/11 07:21:45;;;;;;;10.20;9.18;;;1.90;99.90;;;;;;4953007;28;20500;-77
2021/10/11 07:24:15;;;;;;;16.55;9.00;;;2.20;99.90;;;;;;4952851;29;20050;-78
2021/10/11 07:26:43;;;;;;;10.20;7.45;;;2.60;99.90;;;;;;4937621;28;20048;-78
2021/10/11 07:29:10;;;;;;;8.63;7.68;;;2.80;99.90;;;;;;4972449;28;20058;-78
2021/10/11 07:31:38;;;;;;;11.35;8.63;;;3.20;99.90;;;;;;4972897;28;20058;-78
2021/10/11 07:34:06;;;;;;;8.27;7.45;;;3.40;99.90;;;;;;4972713;28;20105;-78
2021/10/11 07:36:34;;;;;;;9.15;7.30;;;3.50;99.90;;;;;;4972389;28;20062;-77
2021/10/11 07:39:03;;;;;;;11.00;8.20;;;3.60;99.90;;;;;;4972548;28;20519;-78
2021/10/11 07:41:31;;;;;;;10.50;6.68;;;3.90;99.90;;;;;;4957906;28;20516;-78
2021/10/11 07:43:58;;;;;;;13.70;7.63;;;4.10;99.90;;;;;;4953166;29;20490;-78
2021/10/11 07:46:26;;;;;;;10.45;6.90;;;4.30;99.90;;;;;;4953113;29;20051;-78
2021/10/11 07:48:54;;;;;;;8.30;7.45;;;4.40;99.90;;;;;;4953156;28;20043;-78
2021/10/11 07:51:21;;;;;;;9.35;6.88;;;4.50;99.90;;;;;;4952912;29;20058;-78
2021/10/11 07:53:49;;;;;;;8.88;6.85;;;4.70;99.90;;;;;;4952859;29;20044;-78
2021/10/11 07:56:17;;;;;;;9.30;7.70;;;4.90;99.90;;;;;;4953341;29;20043;-78
2021/10/11 07:58:44;;;;;;;10.23;7.82;;;5.10;99.90;;;;;;4950869;29;20043;-78
2021/10/11 08:01:12;;;;;;;9.30;6.45;;;5.30;99.90;;;;;;4934388;28;20694;-77
2021/10/11 08:03:40;;;;;;;8.82;6.95;;;5.40;99.90;;;;;;4932363;28;20047;-78
2021/10/11 08:06:08;;;;;;;7.55;6.78;;;5.50;99.90;;;;;;4953078;28;20058;-78
2021/10/11 08:08:36;;;;;;;9.15;7.25;;;5.50;99.90;;;;;;4950328;28;20047;-78
2021/10/11 08:11:04;;;;;;;7.78;6.38;;;5.50;99.90;;;;;;4953002;29;20058;-79
2021/10/11 08:13:32;;;;;;;7.82;6.95;;;5.70;99.90;;;;;;4952117;29;20047;-78
2021/10/11 08:16:01;;;;;;;8.25;5.85;;;5.80;99.90;;;;;;4952963;29;20392;-78
2021/10/11 08:18:47;;;;;;;11.45;6.95;;;5.90;99.90;;;;;;4952105;29;20043;-78
2021/10/11 08:21:52;;;;;;;7.28;6.47;;;6.00;99.90;;;;;;4947963;29;20539;-78
2021/10/11 08:24:21;;;;;;;6.50;5.38;;;6.10;99.90;;;;;;4951769;29;20047;-79
2021/10/11 08:27:17;;;;;;;17.75;7.43;;;6.20;99.90;;;;;;4949281;28;20043;-80
2021/10/11 08:30:31;;;;;;;10.63;6.97;;;6.40;99.90;;;;;;4932933;29;20635;-80
2021/10/11 08:32:59;;;;;;;9.57;7.22;;;6.60;99.90;;;;;;4915954;29;20051;-80
2021/10/11 08:35:27;;;;;;;8.60;7.78;;;6.60;99.90;;;;;;4933755;29;20051;-79
2021/10/11 08:37:55;;;;;;;7.60;6.78;;;6.70;99.90;;;;;;4916239;29;20052;-80
2021/10/11 08:40:23;;;;;;;14.07;6.82;;;6.80;99.90;;;;;;4933416;29;20051;-79
2021/10/11 08:42:52;;;;;;;6.30;5.72;;;7.00;99.90;;;;;;4932916;29;20059;-79
2021/10/11 08:45:19;;;;;;;7.35;6.45;;;6.80;99.90;;;;;;4941390;29;20044;-78
2021/10/11 08:47:47;;;;;;;5.75;4.47;;;6.90;99.90;;;;;;4952239;29;20054;-78
2021/10/11 08:50:16;;;;;;;8.93;8.05;;;6.90;99.90;;;;;;4952105;28;20055;-78
2021/10/11 08:52:47;;;;;;;11.25;8.93;;;7.10;99.90;;;;;;4942111;29;20145;-78
2021/10/11 08:55:15;;;;;;;8.13;5.90;;;7.30;99.90;;;;;;4947708;29;20066;-78
2021/10/11 08:57:42;;;;;;;9.63;6.53;;;7.40;99.90;;;;;;4951092;29;20066;-79
2021/10/11 09:00:12;;;;;;;6.78;5.65;;;7.60;99.90;;;;;;4934426;29;20059;-81
2021/10/11 09:02:56;;;;;;;20.40;7.20;;;7.70;99.90;;;;;;4951822;29;20047;-81
2021/10/11 09:05:32;;;;;;;10.93;5.40;;;7.80;99.90;;;;;;4934402;29;20051;-80
2021/10/11 09:08:02;;;;;;;9.23;4.93;;;8.00;99.90;;;;;;4952080;28;20054;-81
2021/10/11 09:10:36;;;;;;;9.10;5.97;;;8.10;99.90;;;;;;4940926;28;20043;-81
2021/10/11 09:13:11;;;;;;;8.07;4.78;;;8.20;99.90;;;;;;4951616;28;20040;-80
2021/10/11 09:15:40;;;;;;;5.70;5.05;;;8.20;99.90;;;;;;4952364;29;20039;-81
2021/10/11 09:18:08;;;;;;;7.70;4.90;;;8.20;99.90;;;;;;4934926;29;20040;-81
2021/10/11 09:20:39;;;;;;;8.18;5.25;;;8.30;99.90;;;;;;4938369;28;20556;-81
2021/10/11 09:23:08;;;;;;;7.72;7.03;;;8.40;99.90;;;;;;4955705;29;20043;-81
2021/10/11 09:25:40;;;;;;;8.05;7.07;;;8.30;99.90;;;;;;4935161;29;20044;-81
2021/10/11 09:28:08;;;;;;;7.45;5.25;;;8.40;99.90;;;;;;4936378;29;20401;-81
2021/10/11 09:30:41;;;;;;;7.22;4.85;;;8.60;99.90;;;;;;4936069;29;20409;-81
2021/10/11 09:33:18;;;;;;;8.70;5.57;;;8.70;99.90;;;;;;4936389;29;20055;-81
2021/10/11 09:35:46;;;;;;;7.20;5.43;;;9.00;99.90;;;;;;4936922;29;20060;-82
2021/10/11 09:38:23;;;;;;;8.48;5.70;;;9.10;99.90;;;;;;4939511;29;20059;-80
2021/10/11 09:40:54;;;;;;;6.78;4.82;;;9.20;99.90;;;;;;4953471;28;20035;-82
2021/10/11 09:43:32;;;;;;;8.48;5.25;;;9.20;99.90;;;;;;4955427;29;20051;-82
2021/10/11 09:46:11;;;;;;;11.50;4.85;;;9.30;99.90;;;;;;4952879;29;20044;-81
2021/10/11 09:48:51;;;;;;;3.67;3.15;;;9.40;99.90;;;;;;4949399;28;20094;-82
2021/10/11 09:51:21;;;;;;;8.05;4.82;;;9.40;99.90;;;;;;4955578;29;20039;-80
2021/10/11 09:53:51;;;;;;;6.38;3.78;;;9.30;99.90;;;;;;4937754;29;20054;-82
2021/10/11 09:56:20;;;;;;;4.88;3.70;;;9.40;99.90;;;;;;4955568;29;20051;-79
2021/10/11 09:58:49;;;;;;;3.70;3.33;;;9.40;99.90;;;;;;4947526;29;20047;-81
2021/10/11 10:01:17;;;;;;;3.47;3.00;;;9.40;99.90;;;;;;4926086;28;20058;-79
2021/10/11 10:03:45;;;;;;;4.80;3.65;;;9.40;99.90;;;;;;4942553;28;20249;-82
2021/10/11 10:06:13;;;;;;;6.53;4.57;;;9.40;99.90;;;;;;4956634;28;20043;-80
2021/10/11 10:08:43;;;;;;;6.47;3.53;;;9.50;99.90;;;;;;4955010;28;20047;-82
2021/10/11 10:11:11;;;;;;;10.38;6.13;;;9.80;99.90;;;;;;4955222;29;20055;-81
2021/10/11 10:13:47;;;;;;;7.15;5.22;;;9.90;99.90;;;;;;4937127;29;20043;-80
2021/10/11 10:16:17;;;;;;;10.10;6.22;;;9.80;99.90;;;;;;4922394;29;20058;-79
2021/10/11 10:18:46;;;;;;;7.22;4.85;;;9.80;99.90;;;;;;4937581;28;20519;-82
2021/10/11 10:21:15;;;;;;;8.45;6.45;;;9.80;99.90;;;;;;4954516;29;20043;-78
2021/10/11 10:23:53;;;;;;;12.30;7.93;;;10.00;99.90;;;;;;4937981;29;20047;-78
2021/10/11 10:26:34;;;;;;;8.90;7.00;;;10.20;99.90;;;;;;4954689;28;20048;-77
2021/10/11 10:29:13;;;;;;;14.40;6.22;;;10.40;99.90;;;;;;4961364;28;20039;-78
2021/10/11 10:31:41;;;;;;;8.98;5.28;;;10.30;99.90;;;;;;4950569;28;20421;-80
2021/10/11 10:34:17;;;;;;;8.13;5.68;;;10.20;99.90;;;;;;4944491;28;20054;-78
2021/10/11 10:36:58;;;;;;;11.88;6.40;;;10.30;99.90;;;;;;4952652;28;20478;-78
2021/10/11 10:39:41;;;;;;;12.57;6.07;;;10.50;99.90;;;;;;4961648;28;20046;-77
2021/10/11 10:42:20;;;;;;;17.17;7.82;;;10.50;99.90;;;;;;4957366;28;20066;-77
2021/10/11 10:44:47;;;;;;;8.82;7.40;;;10.50;99.90;;;;;;4954147;29;20054;-77
2021/10/11 10:47:15;;;;;;;10.13;7.95;;;10.60;99.90;;;;;;4956772;28;20483;-78
2021/10/11 10:49:47;;;;;;;7.20;6.20;;;10.70;99.90;;;;;;4942030;28;20067;-78
2021/10/11 10:52:18;;;;;;;8.70;5.70;;;10.70;99.90;;;;;;4960846;28;20048;-78
2021/10/11 10:54:49;;;;;;;8.52;7.22;;;10.90;99.90;;;;;;4951349;29;20062;-79
2021/10/11 10:57:19;;;;;;;7.53;5.53;;;10.80;99.90;;;;;;4953365;29;20043;-78
2021/10/11 10:59:55;;;;;;;10.23;5.30;;;10.70;99.90;;;;;;4953749;28;20058;-79
2021/10/11 11:02:29;;;;;;;10.40;6.63;;;10.60;99.90;;;;;;4952980;28;20054;-79
2021/10/11 11:05:01;;;;;;;6.50;4.97;;;10.70;99.90;;;;;;4966759;28;20047;-78
2021/10/11 11:07:37;;;;;;;11.02;6.07;;;10.80;99.90;;;;;;4973461;28;20474;-77
2021/10/11 11:10:18;;;;;;;11.32;4.97;;;10.80;99.90;;;;;;4969309;28;20043;-78
2021/10/11 11:12:53;;;;;;;8.73;4.95;;;10.80;99.90;;;;;;4948273;28;20588;-80
2021/10/11 11:15:23;;;;;;;8.57;7.13;;;11.00;99.90;;;;;;4935566;28;20047;-78
2021/10/11 11:17:51;;;;;;;5.63;5.10;;;11.00;99.90;;;;;;4957115;28;20050;-77
2021/10/11 11:20:33;;;;;;;8.13;6.68;;;11.00;99.90;;;;;;4962273;28;20055;-78
2021/10/11 11:23:04;;;;;;;6.03;5.43;;;11.10;99.90;;;;;;4934632;28;20054;-78
2021/10/11 11:25:35;;;;;;;7.53;6.80;;;11.30;99.90;;;;;;4945461;28;20044;-79
2021/10/11 11:28:05;;;;;;;10.43;6.32;;;11.30;99.90;;;;;;4958646;28;20058;-80
2021/10/11 11:30:34;;;;;;;8.33;6.53;;;11.20;99.90;;;;;;4955579;28;20539;-82
2021/10/11 11:33:04;;;;;;;9.55;7.82;;;11.20;99.90;;;;;;4955747;28;20274;-83
2021/10/11 11:35:36;;;;;;;12.25;5.53;;;11.20;99.90;;;;;;4956061;28;20073;-88
2021/10/11 11:38:06;;;;;;;11.45;7.80;;;11.30;99.90;;;;;;4973198;28;20038;-85
2021/10/11 11:40:42;;;;;;;11.27;6.30;;;11.50;99.90;;;;;;4972141;28;20050;-84
2021/10/11 11:43:11;;;;;;;10.73;6.85;;;11.80;99.90;;;;;;4972843;28;20053;-86
2021/10/11 11:45:40;;;;;;;8.98;6.32;;;11.90;99.90;;;;;;4973013;28;20507;-82
2021/10/11 11:48:13;;;;;;;12.88;6.68;;;11.90;99.90;;;;;;4955982;28;20469;-83
2021/10/11 11:50:42;;;;;;;9.70;6.93;;;11.80;99.90;;;;;;4972395;28;20046;-83
2021/10/11 11:53:12;;;;;;;11.45;6.75;;;11.80;99.90;;;;;;4971977;28;20050;-83
2021/10/11 11:55:41;;;;;;;12.15;6.68;;;11.70;99.90;;;;;;4972987;28;20406;-85
2021/10/11 11:58:15;;;;;;;13.05;7.57;;;11.70;99.90;;;;;;4971604;28;20057;-83
2021/10/11 12:00:48;;;;;;;18.55;7.07;;;11.70;99.90;;;;;;4955371;28;20065;-85
2021/10/11 12:03:21;;;;;;;7.53;5.55;;;11.70;99.90;;;;;;4972946;28;20633;-86
2021/10/11 12:05:54;;;;;;;13.40;6.25;;;11.80;99.90;;;;;;4972383;28;20051;-85
2021/10/11 12:08:23;;;;;;;7.53;6.80;;;11.90;99.90;;;;;;4955709;28;20053;-85
2021/10/11 12:11:04;;;;;;;9.93;6.40;;;11.80;99.90;;;;;;4954782;28;20054;-84
2021/10/11 12:13:35;;;;;;;8.35;3.72;;;11.80;99.90;;;;;;4966512;28;20500;-86
2021/10/11 12:16:05;;;;;;;7.45;4.10;;;11.80;99.90;;;;;;4920300;29;20058;-83
2021/10/11 12:18:38;;;;;;;11.35;6.05;;;12.00;99.90;;;;;;4935615;29;20047;-84
2021/10/11 12:21:19;;;;;;;6.95;4.90;;;12.10;99.90;;;;;;4952898;28;20055;-84
2021/10/11 12:23:47;;;;;;;6.33;4.73;;;12.10;99.90;;;;;;4935570;29;20059;-82
2021/10/11 12:26:15;;;;;;;10.90;5.75;;;12.10;99.90;;;;;;4934750;29;20039;-83
2021/10/11 12:28:57;;;;;;;7.57;5.20;;;12.20;99.90;;;;;;4936226;28;20051;-82
2021/10/11 12:31:28;;;;;;;10.02;6.13;;;12.10;99.90;;;;;;4936039;29;20055;-83
2021/10/11 12:34:07;;;;;;;7.45;5.38;;;12.10;99.90;;;;;;4919774;29;20043;-88
2021/10/11 12:36:52;;;;;;;9.98;6.85;;;12.10;99.90;;;;;;4953299;29;20054;-87
2021/10/11 12:39:28;;;;;;;7.40;6.35;;;12.00;99.90;;;;;;4934756;29;20054;-86
2021/10/11 12:41:55;;;;;;;8.82;6.47;;;12.00;99.90;;;;;;4932533;29;20055;-83
2021/10/11 12:44:43;;;;;;;9.95;6.10;;;12.10;99.90;;;;;;4933970;29;20052;-80
2021/10/11 12:47:28;;;;;;;7.65;6.25;;;12.20;99.90;;;;;;4929808;29;20048;-82
2021/10/11 12:50:05;;;;;;;6.18;4.85;;;12.40;99.90;;;;;;4933002;29;20129;-83
2021/10/11 12:52:34;;;;;;;7.85;5.35;;;12.50;99.90;;;;;;4932764;29;20421;-78
2021/10/11 12:55:06;;;;;;;7.35;5.90;;;12.30;99.90;;;;;;4933998;29;20051;-79
2021/10/11 12:57:34;;;;;;;7.32;5.20;;;12.20;99.90;;;;;;4947645;29;20515;-79
2021/10/11 13:00:04;;;;;;;12.20;6.03;;;12.40;99.90;;;;;;4952882;29;20051;-84
2021/10/11 13:02:31;;;;;;;8.43;5.95;;;12.50;99.90;;;;;;4952361;28;20058;-84